सभी
Gayndah Hospital Airport YXGI मौसम
There is no TAF data available at YXGI or any nearby airports.
There is no METAR data available at YXGI. Showing METAR data for YGAY (2 mi NE).
Recent GAH METAR history (no data for YXGI)
| Date | Time (AEST) | Flight Rules | Wind Dir. | Speed | Type | Height AGL (ft) | Visibility | Temp (°C) | Temp (°F) | Dew Point (°C) | Dew Point (°F) | Rel. Humid. | Pressure | Density Altitude | Remarks |
|---|---|---|---|---|---|---|---|---|---|---|---|---|---|---|---|
| 05-मई | 05:00 | n/a | 230° | 2 kt | Missing | 14° | 57° | 14° | 57° | 100% | 1016 mb | 167 ft | |||
| 05-मई | 04:00 | n/a | 210° | 1 kt | Missing | 14° | 57° | 14° | 57° | 100% | 1016 mb | 167 ft | |||
| 05-मई | 03:00 | n/a | Calm | Missing | 14° | 57° | 14° | 57° | 100% | 1016 mb | 167 ft | ||||
| 05-मई | 02:00 | n/a | Calm | Missing | 15° | 59° | 15° | 59° | 100% | 1016 mb | 287 ft | ||||
| 05-मई | 01:00 | n/a | Calm | Missing | 15° | 59° | 15° | 59° | 100% | 1017 mb | 257 ft | ||||
| 05-मई | 00:00 | n/a | 280° | 2 kt | Missing | 15° | 59° | 15° | 59° | 100% | 1017 mb | 257 ft | |||
| 04-मई | 23:00 | n/a | 10° | 2 kt | Missing | 16° | 60° | 15° | 59° | 94% | 1017 mb | 377 ft | |||
| 04-मई | 22:00 | n/a | Calm | Missing | 17° | 62° | 16° | 60° | 94% | 1017 mb | 497 ft | ||||
| 04-मई | 21:00 | n/a | Calm | Missing | 18° | 64° | 16° | 60° | 88% | 1017 mb | 617 ft | ||||
| 04-मई | 20:00 | n/a | Calm | Missing | 19° | 66° | 16° | 60° | 83% | 1017 mb | 737 ft | ||||
| 04-मई | 19:00 | n/a | Calm | Missing | 20° | 68° | 16° | 60° | 78% | 1016 mb | 887 ft | ||||
| 04-मई | 18:00 | n/a | 110° | 2 kt | Missing | 23° | 73° | 16° | 60° | 65% | 1015 mb | 1,276 ft | |||
| 04-मई | 17:00 | n/a | 120° | 3 kt | Missing | 26° | 78° | 17° | 62° | 58% | 1015 mb | 1,636 ft | |||
| 04-मई | 16:00 | n/a | 50° | 1 kt | Missing | 29° | 84° | 17° | 62° | 48% | 1014 mb | 2,026 ft | |||
| 04-मई | 15:00 | n/a | 20° | 3 kt | Missing | 29° | 84° | 17° | 62° | 48% | 1014 mb | 2,026 ft | |||
| 04-मई | 14:00 | n/a | 70° | 2 kt | Missing | 28° | 82° | 17° | 62° | 51% | 1015 mb | 1,876 ft | |||
| 04-मई | 13:00 | n/a | 170° | 6 kt | Missing | 28° | 82° | 18° | 64° | 55% | 1016 mb | 1,847 ft | |||
| 04-मई | 12:00 | n/a | 170° | 4 kt | Missing | 26° | 78° | 18° | 64° | 61% | 1017 mb | 1,577 ft | |||
| 04-मई | 11:00 | n/a | 230° | 3 kt | Missing | 24° | 75° | 18° | 64° | 69% | 1018 mb | 1,307 ft | |||
| 04-मई | 10:00 | n/a | 260° | 5 kt | Missing | 23° | 73° | 17° | 62° | 69% | 1018 mb | 1,187 ft | |||
| 04-मई | 09:00 | n/a | 260° | 6 kt | Missing | 20° | 68° | 17° | 62° | 83% | 1018 mb | 827 ft | |||
| 04-मई | 08:00 | n/a | 250° | 5 kt | Missing | 16° | 60° | 15° | 59° | 94% | 1018 mb | 347 ft | |||
| 04-मई | 07:00 | n/a | 190° | 2 kt | Missing | 13° | 55° | 12° | 53° | 94% | 1018 mb | -13 ft | |||
| 04-मई | 06:00 | n/a | 230° | 2 kt | Missing | 11° | 51° | 10° | 50° | 94% | 1017 mb | -223 ft |
लॉगिन
| Your browser is unsupported. अपना ब्राऊजर अपग्रेड करें |
